Terminal Aerodrome Forecast
Issued by NWS

Home | Current Version | Previous Version | Text Only | Print | Product List | Glossary Off
Versions: 1 2 3 4 5 6 7 8 9 10 11 12 13 14 15 16 17 18

000
FTUS43 KICT 261734
TAFCNU
TAF
KCNU 261734Z 2618/2718 13006KT P6SM FEW060
     FM271000 16006KT 5SM BR BKN080
     FM271600 17010KT P6SM SCT080=

USA.gov is the U.S. government's official web portal to all federal, state and local government web resources and services.